Troutdale, OR (97060)

7:31 AM PST on February 08, 2016 (GMT -0800)
Stewart Ridge | | Change Station
CLOSE
Current Station
Personal Weather Station
Location: Troutdale, OR
Elevation: 280 ft
Nearby Weather Stations

Elev 280 ft 45.53 °N, 122.39 °W | Updated 6 minutes ago

Clear
Clear
46.0 °F
Feels Like 38 °F
N
22.6
Wind Variable Wind from ENE
Gusts 42.9 mph

Today
High -- | Low -- °F
--% Chance of Precip.
Yesterday
High -- | Low -- °F
Precip. -- in
Pressure 30.43 in
Visibility 10.0 miles
Clouds Clear
Windchill 38 °F
Dew Point 32 °F
Humidity 58%
Rainfall 0.00 in
Snow Depth Not available.
7:22 AM 5:25 PM
New Moon, 0% visible
METAR KTTD 081453Z 08022G29KT 10SM CLR 08/01 A3043 RMK AO2 PK WND 08030/1357 SLP304 T00830011 55002
Pressure 30.43 in
Visibility 10.0 miles
Clouds Clear
Windchill 38 °F
Dew Point 32 °F
Humidity 58%
Rainfall 0.00 in
Snow Depth Not available.
7:22 AM 5:25 PM
New Moon, 0% visible
METAR KTTD 081453Z 08022G29KT 10SM CLR 08/01 A3043 RMK AO2 PK WND 08030/1357 SLP304 T00830011 55002

10-Day Weather Forecast

Almanac

Astronomy

Feb. 08, 2016 Rise Set
Actual Time
Civil Twilight
Nautical Twilight
Astronomical Twilight
Moon
Length of Visible Light
Length of Day
Tomorrow will be .
, % of the Moon is Illuminated

Today's Extremes

State Highs State Lows

Community

WunderPhotos

Upload Photos

1,891,440 photos uploaded!

WunderBlog® & News

Nearby

Air Quality

  Air Quality AQ Index Pollutant
Not available.

Snow Depth

Station Depth Elevation

Earthquake Activity

City Distance Mag. Time & Date
Minimum magnitude displayed is 2.5.

Coastal Water Temperatures

Place Temperature

Stations

Nearby Weather Stations

Station Location Temp. Windchill Dew Point Humidity Wind Precip. Elev Updated Type
                   

Watches & Warnings

There are currently no watches in effect.